createdAt,value
2023-02-02T00:00:28.347Z,3.50
2023-02-02T00:02:55.107Z,3.60
2023-02-02T00:05:22.007Z,3.38
2023-02-02T00:07:48.951Z,2.70
2023-02-02T00:10:15.643Z,4.05
2023-02-02T00:12:42.329Z,4.10
2023-02-02T00:15:09.357Z,4.32
2023-02-02T00:17:36.138Z,3.70
2023-02-02T00:20:02.928Z,3.75
2023-02-02T00:22:29.355Z,4.30
2023-02-02T00:24:56.291Z,4.63
2023-02-02T00:27:22.765Z,4.25
2023-02-02T00:29:53.911Z,3.85
2023-02-02T00:32:20.557Z,3.90
2023-02-02T00:34:47.320Z,3.58
2023-02-02T00:37:13.915Z,4.80
2023-02-02T00:39:40.365Z,3.70
2023-02-02T00:42:10.970Z,3.50
2023-02-02T00:44:56.324Z,4.38
2023-02-02T00:47:23.030Z,3.88
2023-02-02T00:49:49.599Z,3.53
2023-02-02T00:52:17.564Z,3.65
2023-02-02T00:54:44.549Z,4.53
2023-02-02T00:57:15.217Z,3.40
2023-02-02T01:05:16.966Z,4.05
2023-02-02T01:08:53.411Z,4.05
2023-02-02T01:11:40.000Z,3.55
2023-02-02T01:14:27.261Z,4.45
2023-02-02T01:17:15.783Z,3.97
2023-02-02T01:23:37.094Z,3.45
2023-02-02T01:26:06.844Z,4.35
2023-02-02T01:28:53.536Z,3.80
2023-02-02T01:35:16.852Z,3.55
2023-02-02T01:37:43.428Z,4.00
2023-02-02T01:40:11.100Z,3.85
2023-02-02T01:42:37.563Z,3.42
2023-02-02T01:45:42.577Z,4.22
2023-02-02T01:48:10.613Z,3.97
2023-02-02T01:51:01.685Z,4.80
2023-02-02T01:53:51.370Z,3.85
2023-02-02T01:56:52.267Z,4.60
2023-02-02T01:59:39.160Z,4.05
2023-02-02T02:02:27.875Z,3.70
2023-02-02T02:04:55.375Z,4.25
2023-02-02T02:07:22.508Z,4.93
2023-02-02T02:09:49.205Z,3.90
2023-02-02T02:12:17.056Z,3.88
2023-02-02T02:15:05.408Z,2.80
2023-02-02T02:18:08.770Z,3.60
2023-02-02T02:21:14.191Z,3.45
2023-02-02T02:24:24.685Z,3.53
2023-02-02T02:29:48.939Z,3.92
2023-02-02T02:32:44.691Z,4.13
2023-02-02T02:35:26.062Z,3.58
2023-02-02T02:38:25.389Z,4.00
2023-02-02T02:41:00.521Z,3.60
2023-02-02T02:43:31.941Z,3.80
2023-02-02T02:45:59.002Z,4.28
2023-02-02T02:48:25.913Z,3.50
2023-02-02T02:50:52.583Z,5.18
2023-02-02T02:53:24.693Z,3.33
2023-02-02T02:55:58.064Z,3.90
2023-02-02T02:58:50.485Z,3.42
2023-02-02T03:01:48.135Z,4.10
2023-02-02T03:04:44.865Z,4.35
2023-02-02T03:07:22.817Z,4.47
2023-02-02T03:09:51.741Z,3.30
2023-02-02T03:12:18.448Z,4.32
2023-02-02T03:14:45.080Z,3.55
2023-02-02T03:17:11.897Z,4.40
2023-02-02T03:19:38.328Z,4.20
2023-02-02T03:22:04.966Z,4.15
2023-02-02T03:24:31.691Z,3.50
2023-02-02T03:26:58.178Z,4.95
2023-02-02T03:29:25.651Z,4.00
2023-02-02T03:31:52.649Z,4.30
2023-02-02T03:34:19.108Z,5.97
2023-02-02T03:36:45.860Z,3.58
2023-02-02T03:39:12.795Z,4.28
2023-02-02T03:41:39.701Z,3.47
2023-02-02T03:44:06.346Z,3.55
2023-02-02T03:46:33.225Z,3.58
2023-02-02T03:48:59.762Z,3.70
2023-02-02T03:51:26.913Z,3.80
2023-02-02T03:53:53.375Z,3.75
2023-02-02T03:56:20.154Z,4.05
2023-02-02T03:58:47.263Z,3.45
2023-02-02T04:01:15.206Z,4.28
2023-02-02T04:03:42.062Z,4.70
2023-02-02T04:06:09.359Z,4.03
2023-02-02T04:08:36.122Z,3.72
2023-02-02T04:11:03.056Z,4.43
2023-02-02T04:13:29.558Z,3.35
2023-02-02T04:16:00.704Z,3.85
2023-02-02T04:18:28.173Z,4.28
2023-02-02T04:20:59.591Z,4.13
2023-02-02T04:23:27.134Z,4.10
2023-02-02T04:25:54.365Z,3.80
2023-02-02T04:28:22.446Z,3.72
2023-02-02T04:30:53.560Z,3.45
2023-02-02T04:33:22.026Z,3.90
2023-02-02T04:35:49.518Z,3.83
2023-02-02T04:38:16.063Z,3.90
2023-02-02T04:40:44.969Z,3.90
2023-02-02T04:43:12.147Z,2.95
2023-02-02T04:45:39.300Z,3.75
2023-02-02T04:48:06.403Z,3.78
2023-02-02T04:50:33.118Z,3.42
2023-02-02T04:53:00.003Z,3.05
2023-02-02T04:55:26.929Z,3.13
2023-02-02T04:57:53.548Z,2.88
2023-02-02T05:00:20.788Z,3.25
2023-02-02T05:02:47.406Z,3.05
2023-02-02T05:05:14.960Z,2.95
2023-02-02T05:07:41.793Z,2.40
2023-02-02T05:10:10.308Z,3.60
2023-02-02T05:12:36.888Z,2.80
2023-02-02T05:15:05.348Z,3.10
2023-02-02T05:17:33.124Z,2.53
2023-02-02T05:19:59.509Z,3.13
2023-02-02T05:22:26.831Z,3.13
2023-02-02T05:24:53.472Z,2.97
2023-02-02T05:27:23.304Z,3.22
2023-02-02T05:29:49.970Z,2.88
2023-02-02T05:32:16.662Z,3.20
2023-02-02T05:34:43.580Z,3.13
2023-02-02T05:37:10.204Z,3.03
2023-02-02T05:39:36.977Z,2.60
2023-02-02T05:42:03.752Z,3.35
2023-02-02T05:44:30.669Z,3.22
2023-02-02T05:46:57.151Z,4.10
2023-02-02T05:49:26.895Z,3.22
2023-02-02T05:51:57.254Z,3.22
2023-02-02T05:54:24.538Z,3.78
2023-02-02T05:56:53.422Z,3.22
2023-02-02T05:59:20.222Z,2.80
2023-02-02T06:01:47.520Z,3.58
2023-02-02T06:04:16.018Z,2.75
2023-02-02T06:06:42.909Z,2.88
2023-02-02T06:09:09.967Z,2.92
2023-02-02T06:11:36.630Z,3.47
2023-02-02T06:14:03.132Z,3.15
2023-02-02T06:16:29.804Z,2.85
2023-02-02T06:18:56.697Z,4.20
2023-02-02T06:21:24.882Z,3.17
2023-02-02T06:23:52.377Z,3.25
2023-02-02T06:26:19.385Z,3.03
2023-02-02T06:28:50.661Z,3.20
2023-02-02T06:31:19.729Z,3.10
2023-02-02T06:33:54.853Z,3.28
2023-02-02T06:36:22.800Z,4.07
2023-02-02T06:38:51.458Z,3.10
2023-02-02T06:41:20.294Z,3.67
2023-02-02T06:43:48.329Z,3.50
2023-02-02T06:46:15.367Z,2.95
2023-02-02T06:48:42.002Z,3.97
2023-02-02T06:51:08.750Z,3.00
2023-02-02T06:53:35.462Z,4.22
2023-02-02T06:56:04.707Z,3.17
2023-02-02T06:58:32.465Z,3.08
2023-02-02T07:01:14.147Z,2.65
2023-02-02T07:03:41.441Z,3.00
2023-02-02T07:06:22.857Z,3.00
2023-02-02T07:08:57.613Z,3.15
2023-02-02T07:11:31.217Z,3.55
2023-02-02T07:13:58.365Z,3.83
2023-02-02T07:16:25.030Z,3.40
2023-02-02T07:18:51.530Z,3.78
2023-02-02T07:21:23.638Z,4.13
2023-02-02T07:23:51.197Z,3.00
2023-02-02T07:26:19.047Z,3.17
2023-02-02T07:28:47.002Z,2.72
2023-02-02T07:31:22.490Z,3.08
2023-02-02T07:33:49.634Z,3.65
2023-02-02T07:36:18.996Z,3.33
2023-02-02T07:38:47.378Z,3.33
2023-02-02T07:41:15.712Z,3.22
2023-02-02T07:43:42.526Z,3.30
2023-02-02T07:46:10.606Z,2.65
2023-02-02T07:48:37.601Z,3.95
2023-02-02T07:51:06.507Z,3.20
2023-02-02T07:53:33.972Z,3.53
2023-02-02T07:56:11.869Z,3.38
2023-02-02T07:58:38.824Z,3.15
2023-02-02T08:01:07.649Z,3.90
2023-02-02T08:03:34.931Z,3.45
2023-02-02T08:06:01.914Z,2.90
2023-02-02T08:08:28.857Z,2.90
2023-02-02T08:10:55.413Z,3.15
2023-02-02T08:13:22.193Z,3.53
2023-02-02T08:15:48.791Z,3.85
2023-02-02T08:18:15.506Z,3.58
2023-02-02T08:20:43.224Z,3.85
2023-02-02T08:23:15.495Z,4.30
2023-02-02T08:25:42.912Z,4.30
2023-02-02T08:28:09.451Z,3.13
2023-02-02T08:30:36.241Z,3.85
2023-02-02T08:33:02.860Z,3.15
2023-02-02T08:35:30.148Z,3.45
2023-02-02T08:37:56.658Z,3.55
2023-02-02T08:40:23.204Z,3.55
2023-02-02T08:42:53.476Z,2.95
2023-02-02T08:46:04.139Z,3.15
2023-02-02T08:48:12.163Z,3.58
2023-02-02T08:50:39.352Z,4.10
2023-02-02T08:53:05.940Z,3.55
2023-02-02T08:55:32.575Z,3.30
2023-02-02T08:57:59.017Z,3.95
2023-02-02T09:00:25.909Z,3.47
2023-02-02T09:02:52.450Z,3.88
2023-02-02T09:05:19.115Z,3.15
2023-02-02T09:07:48.537Z,2.63
2023-02-02T09:10:15.449Z,3.92
2023-02-02T09:12:42.309Z,3.75
2023-02-02T09:15:09.271Z,3.50
2023-02-02T09:17:35.792Z,4.72
2023-02-02T09:20:02.389Z,3.85
2023-02-02T09:22:29.091Z,3.28
2023-02-02T09:24:55.857Z,3.13
2023-02-02T09:27:22.397Z,3.10
2023-02-02T09:29:48.934Z,2.90
2023-02-02T09:32:15.759Z,3.00
2023-02-02T09:34:42.471Z,3.58
2023-02-02T09:37:09.020Z,2.47
2023-02-02T09:39:36.055Z,3.33
2023-02-02T09:42:34.708Z,3.38
2023-02-02T09:45:18.705Z,3.63
2023-02-02T09:48:00.884Z,3.53
2023-02-02T09:50:42.028Z,3.03
2023-02-02T09:53:25.146Z,2.83
2023-02-02T09:55:54.002Z,3.83
2023-02-02T09:58:49.389Z,3.55
2023-02-02T10:01:20.006Z,3.47
2023-02-02T10:04:07.986Z,2.90
2023-02-02T10:06:41.145Z,4.15
2023-02-02T10:09:10.701Z,2.80
2023-02-02T10:11:45.684Z,3.05
2023-02-02T10:14:23.194Z,2.85
2023-02-02T10:16:53.852Z,3.35
2023-02-02T10:19:21.123Z,3.33
2023-02-02T10:22:04.550Z,3.33
2023-02-02T10:24:32.674Z,3.00
2023-02-02T10:27:04.346Z,3.42
2023-02-02T10:29:48.837Z,3.38
2023-02-02T10:32:26.981Z,2.58
2023-02-02T10:35:11.102Z,2.72
2023-02-02T10:37:51.170Z,2.95
2023-02-02T10:40:33.217Z,3.70
2023-02-02T10:43:33.879Z,2.83
2023-02-02T10:46:03.918Z,3.08
2023-02-02T10:48:38.040Z,3.20
2023-02-02T10:51:23.336Z,3.10
2023-02-02T10:53:52.649Z,2.92
2023-02-02T10:56:36.437Z,3.55
2023-02-02T10:59:12.059Z,2.83
2023-02-02T11:01:38.554Z,2.95
2023-02-02T11:04:25.516Z,3.78
2023-02-02T11:06:52.417Z,2.03
2023-02-02T11:09:39.405Z,2.92
2023-02-02T11:12:33.869Z,2.55
2023-02-02T11:15:25.384Z,2.78
2023-02-02T11:17:52.047Z,2.97
2023-02-02T11:20:33.965Z,2.65
2023-02-02T11:23:03.279Z,3.17
2023-02-02T11:25:40.228Z,2.80
2023-02-02T11:28:18.635Z,2.75
2023-02-02T11:30:52.330Z,3.20
2023-02-02T11:33:36.345Z,2.10
2023-02-02T11:36:19.061Z,3.28
2023-02-02T11:38:45.874Z,2.65
2023-02-02T11:41:17.084Z,3.00
2023-02-02T11:43:52.473Z,2.97
2023-02-02T11:46:29.137Z,2.65
2023-02-02T11:49:14.813Z,2.53
2023-02-02T11:51:42.713Z,2.22
2023-02-02T11:54:19.723Z,3.13
2023-02-02T11:56:52.899Z,2.30
2023-02-02T11:59:39.391Z,2.28
2023-02-02T12:02:31.058Z,2.42
2023-02-02T12:05:09.816Z,2.47
2023-02-02T12:07:37.458Z,3.28
2023-02-02T12:10:13.718Z,2.97
2023-02-02T12:12:50.220Z,2.67
2023-02-02T12:15:50.948Z,2.33
2023-02-02T12:18:46.710Z,3.17
2023-02-02T12:21:37.244Z,2.85
2023-02-02T12:24:25.767Z,2.78
2023-02-02T12:27:15.633Z,3.08
2023-02-02T12:30:09.206Z,3.00
2023-02-02T12:32:50.027Z,2.83
2023-02-02T12:35:33.077Z,2.47
2023-02-02T12:38:29.864Z,2.15
2023-02-02T12:41:14.843Z,2.40
2023-02-02T12:44:00.049Z,2.47
2023-02-02T12:46:26.782Z,3.20
2023-02-02T12:49:18.985Z,2.78
2023-02-02T12:52:20.078Z,2.40
2023-02-02T12:55:15.124Z,2.22
2023-02-02T12:58:07.046Z,2.55
2023-02-02T13:00:48.569Z,2.10
2023-02-02T13:03:23.603Z,2.45
2023-02-02T13:06:02.335Z,1.67
2023-02-02T13:08:55.933Z,1.98
2023-02-02T13:11:36.340Z,2.17
2023-02-02T13:14:18.857Z,2.45
2023-02-02T13:16:49.354Z,2.30
2023-02-02T13:19:48.783Z,2.10
2023-02-02T13:22:26.518Z,2.60
2023-02-02T13:24:56.644Z,2.75
2023-02-02T13:27:24.885Z,2.83
2023-02-02T13:30:01.824Z,2.25
2023-02-02T13:32:36.433Z,1.77
2023-02-02T13:35:12.253Z,2.15
2023-02-02T13:37:57.523Z,1.80
2023-02-02T13:40:27.293Z,2.13
2023-02-02T13:43:32.666Z,3.15
2023-02-02T13:46:17.363Z,1.35
2023-02-02T13:48:54.932Z,2.05
2023-02-02T13:51:44.371Z,1.70
2023-02-02T13:54:50.392Z,1.42
2023-02-02T13:57:36.087Z,2.30
2023-02-02T14:00:23.396Z,1.70
2023-02-02T14:03:06.681Z,1.58
2023-02-02T14:05:41.535Z,1.40
2023-02-02T14:08:20.777Z,1.60
2023-02-02T14:10:53.765Z,1.67
2023-02-02T14:13:43.456Z,1.90
2023-02-02T14:16:41.550Z,1.40
2023-02-02T14:19:16.648Z,1.63
2023-02-02T14:21:43.099Z,1.60
2023-02-02T14:24:28.604Z,1.67
2023-02-02T14:26:55.262Z,1.48
2023-02-02T14:29:39.602Z,1.90
2023-02-02T14:32:11.353Z,1.50
2023-02-02T14:34:42.656Z,1.45
2023-02-02T14:37:25.414Z,1.83
2023-02-02T14:40:08.933Z,1.88
2023-02-02T14:43:06.531Z,1.75
2023-02-02T14:45:34.606Z,1.60
2023-02-02T14:48:09.122Z,1.60
2023-02-02T14:50:38.884Z,1.40
2023-02-02T14:53:34.926Z,1.30
2023-02-02T14:56:08.863Z,1.63
2023-02-02T14:59:00.010Z,1.60
2023-02-02T15:01:30.972Z,1.77
2023-02-02T15:04:00.653Z,1.30
2023-02-02T15:06:30.120Z,1.52
2023-02-02T15:09:23.171Z,1.40
2023-02-02T15:12:00.894Z,1.60
2023-02-02T15:14:36.643Z,1.40
2023-02-02T15:17:12.511Z,1.88
2023-02-02T15:19:45.002Z,1.90
2023-02-02T15:22:32.081Z,1.50
2023-02-02T15:25:04.772Z,1.75
2023-02-02T15:27:31.839Z,1.73
2023-02-02T15:30:04.184Z,1.83
2023-02-02T15:32:31.621Z,1.75
2023-02-02T15:35:02.898Z,1.70
2023-02-02T15:37:40.045Z,1.95
2023-02-02T15:40:21.603Z,2.15
2023-02-02T15:43:01.462Z,2.13
2023-02-02T15:45:28.126Z,2.35
2023-02-02T15:47:57.454Z,2.72
2023-02-02T15:50:25.554Z,2.77
2023-02-02T15:52:53.716Z,2.78
2023-02-02T15:55:36.088Z,3.28
2023-02-02T15:58:03.198Z,2.90
2023-02-02T16:00:30.138Z,2.85
2023-02-02T16:03:19.453Z,3.58
2023-02-02T16:05:54.467Z,2.70
2023-02-02T16:08:35.033Z,3.08
2023-02-02T16:11:08.874Z,3.20
2023-02-02T16:13:36.530Z,2.53
2023-02-02T16:16:08.937Z,3.08
2023-02-02T16:18:37.877Z,2.95
2023-02-02T16:21:14.617Z,3.58
2023-02-02T16:23:41.740Z,3.03
2023-02-02T16:26:13.035Z,2.63
2023-02-02T16:28:40.000Z,2.67
2023-02-02T16:31:07.204Z,3.15
2023-02-02T16:33:46.091Z,4.07
2023-02-02T16:36:29.674Z,3.38
2023-02-02T16:38:59.783Z,3.03
2023-02-02T16:41:36.583Z,2.38
2023-02-02T16:44:29.810Z,2.95
2023-02-02T16:46:56.895Z,3.63
2023-02-02T16:49:28.896Z,3.13
2023-02-02T16:52:21.076Z,3.22
2023-02-02T16:54:54.405Z,2.40
2023-02-02T16:57:34.156Z,2.53
2023-02-02T17:00:06.331Z,2.42
2023-02-02T17:02:41.937Z,2.28
2023-02-02T17:05:29.109Z,3.45
2023-02-02T17:08:03.928Z,2.72
2023-02-02T17:10:38.251Z,2.88
2023-02-02T17:13:30.467Z,2.60
2023-02-02T17:15:57.755Z,2.42
2023-02-02T17:18:24.589Z,2.97
2023-02-02T17:20:57.727Z,2.85
2023-02-02T17:23:26.691Z,2.53
2023-02-02T17:25:54.419Z,3.58
2023-02-02T17:28:24.030Z,2.47
2023-02-02T17:31:03.233Z,3.33
2023-02-02T17:33:34.201Z,2.35
2023-02-02T17:36:01.152Z,2.83
2023-02-02T17:38:28.319Z,2.10
2023-02-02T17:40:58.133Z,2.30
2023-02-02T17:43:26.073Z,2.22
2023-02-02T17:45:53.165Z,2.47
2023-02-02T17:48:20.719Z,2.10
2023-02-02T17:50:47.577Z,2.00
2023-02-02T17:53:17.508Z,2.30
2023-02-02T17:55:46.267Z,2.03
2023-02-02T17:58:17.054Z,2.67
2023-02-02T18:00:51.645Z,2.63
2023-02-02T18:03:23.624Z,2.58
2023-02-02T18:05:50.428Z,2.22
2023-02-02T18:08:16.969Z,2.83
2023-02-02T18:10:44.175Z,2.33
2023-02-02T18:13:16.070Z,2.28
2023-02-02T18:15:43.911Z,2.10
2023-02-02T18:18:12.368Z,2.83
2023-02-02T18:20:46.697Z,2.50
2023-02-02T18:23:18.623Z,2.28
2023-02-02T18:25:47.376Z,3.00
2023-02-02T18:28:17.345Z,2.22
2023-02-02T18:30:45.337Z,3.30
2023-02-02T18:33:13.173Z,2.45
2023-02-02T18:35:45.400Z,2.33
2023-02-02T18:38:12.920Z,2.53
2023-02-02T18:40:39.504Z,2.40
2023-02-02T18:43:06.440Z,2.80
2023-02-02T18:45:32.981Z,2.47
2023-02-02T18:47:59.535Z,2.92
2023-02-02T18:50:26.168Z,2.50
2023-02-02T18:52:53.084Z,2.92
2023-02-02T18:55:19.665Z,2.72
2023-02-02T18:57:46.385Z,3.35
2023-02-02T19:00:13.374Z,2.38
2023-02-02T19:02:40.406Z,2.88
2023-02-02T19:05:26.456Z,3.65
2023-02-02T19:07:56.138Z,2.70
2023-02-02T19:10:24.897Z,2.90
2023-02-02T19:13:06.756Z,3.55
2023-02-02T19:15:37.693Z,2.95
2023-02-02T19:18:12.222Z,3.83
2023-02-02T19:20:38.845Z,2.70
2023-02-02T19:23:16.656Z,2.40
2023-02-02T19:25:51.256Z,2.90
2023-02-02T19:28:23.290Z,3.08
2023-02-02T19:30:53.137Z,2.42
2023-02-02T19:33:21.681Z,3.15
2023-02-02T19:35:52.233Z,2.78
2023-02-02T19:38:20.587Z,2.80
2023-02-02T19:40:47.742Z,2.33
2023-02-02T19:43:25.090Z,2.75
2023-02-02T19:45:53.431Z,2.72
2023-02-02T19:48:24.580Z,2.55
2023-02-02T19:50:51.563Z,2.63
2023-02-02T19:53:28.502Z,2.63
2023-02-02T19:55:55.067Z,2.40
2023-02-02T19:58:26.987Z,2.47
2023-02-02T20:00:55.647Z,2.70
2023-02-02T20:03:28.188Z,2.58
2023-02-02T20:05:56.841Z,2.38
2023-02-02T20:08:31.918Z,2.85
2023-02-02T20:11:01.606Z,2.85
2023-02-02T20:13:31.367Z,2.63
2023-02-02T20:16:03.829Z,2.50
2023-02-02T20:18:33.683Z,2.40
2023-02-02T20:21:00.556Z,2.80
2023-02-02T20:23:40.921Z,3.30
2023-02-02T20:28:46.095Z,2.70
2023-02-02T20:31:17.783Z,2.83
2023-02-02T20:33:48.049Z,2.92
2023-02-02T20:36:37.557Z,3.58
2023-02-02T20:39:35.520Z,2.42
2023-02-02T20:42:03.358Z,2.65
2023-02-02T20:44:31.916Z,3.28
2023-02-02T20:47:00.296Z,2.70
2023-02-02T20:49:28.908Z,3.35
2023-02-02T20:51:56.714Z,2.47
2023-02-02T20:54:24.461Z,2.75
2023-02-02T20:56:51.995Z,3.25
2023-02-02T20:59:20.133Z,3.15
2023-02-02T21:01:50.091Z,2.95
2023-02-02T21:04:17.643Z,3.42
2023-02-02T21:06:44.745Z,3.20
2023-02-02T21:09:12.316Z,2.60
2023-02-02T21:11:38.899Z,2.72
2023-02-02T21:14:05.919Z,2.88
2023-02-02T21:16:33.388Z,3.00
2023-02-02T21:19:00.926Z,2.38
2023-02-02T21:21:27.733Z,2.53
2023-02-02T21:23:56.422Z,2.95
2023-02-02T21:26:27.397Z,2.50
2023-02-02T21:28:54.138Z,3.13
2023-02-02T21:31:21.421Z,2.80
2023-02-02T21:33:50.578Z,3.25
2023-02-02T21:36:43.839Z,3.22
2023-02-02T21:39:30.837Z,3.00
2023-02-02T21:42:09.729Z,2.75
2023-02-02T21:45:05.048Z,2.53
2023-02-02T21:47:40.715Z,2.88
2023-02-02T21:50:19.723Z,3.70
2023-02-02T21:52:49.336Z,3.97
2023-02-02T21:55:25.056Z,2.92
2023-02-02T21:57:51.520Z,2.78
2023-02-02T22:00:32.616Z,3.97
2023-02-02T22:02:59.996Z,3.05
2023-02-02T22:05:33.203Z,4.38
2023-02-02T22:08:03.022Z,3.00
2023-02-02T22:10:36.375Z,3.17
2023-02-02T22:13:33.912Z,3.53
2023-02-02T22:16:00.640Z,3.47
2023-02-02T22:18:29.162Z,3.33
2023-02-02T22:20:56.417Z,4.28
2023-02-02T22:23:26.858Z,3.97
2023-02-02T22:25:56.585Z,3.80
2023-02-02T22:28:26.577Z,3.45
2023-02-02T22:30:55.092Z,4.00
2023-02-02T22:33:23.337Z,3.67
2023-02-02T22:35:50.848Z,3.13
2023-02-02T22:38:20.472Z,3.13
2023-02-02T22:40:48.199Z,3.00
2023-02-02T22:43:16.508Z,2.80
2023-02-02T22:45:44.054Z,3.05
2023-02-02T22:48:11.824Z,3.25
2023-02-02T22:50:38.645Z,3.05
2023-02-02T22:53:05.554Z,3.08
2023-02-02T22:55:33.253Z,2.55
2023-02-02T22:57:59.867Z,3.00
2023-02-02T23:00:32.902Z,2.45
2023-02-02T23:02:59.817Z,3.20
2023-02-02T23:05:27.787Z,2.80
2023-02-02T23:07:55.325Z,2.75
2023-02-02T23:10:27.738Z,2.92
2023-02-02T23:12:58.167Z,2.83
2023-02-02T23:15:24.968Z,3.53
2023-02-02T23:17:52.043Z,3.30
2023-02-02T23:20:19.068Z,3.72
2023-02-02T23:22:45.806Z,3.03
2023-02-02T23:25:14.101Z,2.70
2023-02-02T23:27:40.921Z,3.40
2023-02-02T23:30:08.957Z,3.63
2023-02-02T23:32:35.795Z,2.30
2023-02-02T23:35:03.192Z,2.55
2023-02-02T23:37:29.906Z,3.42
2023-02-02T23:39:56.416Z,3.05
2023-02-02T23:42:23.392Z,2.75
2023-02-02T23:44:49.953Z,2.80
2023-02-02T23:47:17.189Z,2.50
2023-02-02T23:49:44.059Z,3.47
2023-02-02T23:52:11.208Z,2.95
2023-02-02T23:54:38.274Z,2.80
2023-02-02T23:57:05.381Z,3.03
2023-02-02T23:59:31.812Z,3.13
